sensor_id;sensor_type;location;lat;lon;timestamp;P1;durP1;ratioP1;P2;durP2;ratioP2
75386;SDS011;63966;47.914;22.266;2023-02-03T00:01:02;5.78;;;2.10;;
75386;SDS011;63966;47.914;22.266;2023-02-03T00:04:05;6.45;;;2.20;;
75386;SDS011;63966;47.914;22.266;2023-02-03T00:07:10;6.97;;;2.45;;
75386;SDS011;63966;47.914;22.266;2023-02-03T00:10:15;6.20;;;2.22;;
75386;SDS011;63966;47.914;22.266;2023-02-03T00:13:22;6.53;;;2.28;;
75386;SDS011;63966;47.914;22.266;2023-02-03T00:16:27;6.97;;;2.45;;
75386;SDS011;63966;47.914;22.266;2023-02-03T00:19:31;5.97;;;2.27;;
75386;SDS011;63966;47.914;22.266;2023-02-03T00:22:35;7.75;;;2.15;;
75386;SDS011;63966;47.914;22.266;2023-02-03T00:25:38;6.72;;;2.55;;
75386;SDS011;63966;47.914;22.266;2023-02-03T00:28:42;4.80;;;1.95;;
75386;SDS011;63966;47.914;22.266;2023-02-03T00:31:46;7.30;;;2.20;;
75386;SDS011;63966;47.914;22.266;2023-02-03T00:34:50;5.38;;;1.75;;
75386;SDS011;63966;47.914;22.266;2023-02-03T00:37:54;5.40;;;2.55;;
75386;SDS011;63966;47.914;22.266;2023-02-03T00:40:58;3.63;;;1.50;;
75386;SDS011;63966;47.914;22.266;2023-02-03T00:44:02;7.97;;;2.60;;
75386;SDS011;63966;47.914;22.266;2023-02-03T00:47:05;5.38;;;1.90;;
75386;SDS011;63966;47.914;22.266;2023-02-03T00:50:09;6.05;;;2.67;;
75386;SDS011;63966;47.914;22.266;2023-02-03T00:53:13;5.78;;;2.55;;
75386;SDS011;63966;47.914;22.266;2023-02-03T00:56:17;4.22;;;1.98;;
75386;SDS011;63966;47.914;22.266;2023-02-03T00:59:20;6.80;;;2.43;;
75386;SDS011;63966;47.914;22.266;2023-02-03T01:02:24;5.93;;;2.17;;
75386;SDS011;63966;47.914;22.266;2023-02-03T01:05:28;5.82;;;2.70;;
75386;SDS011;63966;47.914;22.266;2023-02-03T01:08:33;5.55;;;2.30;;
75386;SDS011;63966;47.914;22.266;2023-02-03T01:11:36;7.78;;;2.67;;
75386;SDS011;63966;47.914;22.266;2023-02-03T01:14:41;5.70;;;2.50;;
75386;SDS011;63966;47.914;22.266;2023-02-03T01:17:45;6.70;;;2.53;;
75386;SDS011;63966;47.914;22.266;2023-02-03T01:20:48;7.70;;;2.50;;
75386;SDS011;63966;47.914;22.266;2023-02-03T01:23:52;6.95;;;2.60;;
75386;SDS011;63966;47.914;22.266;2023-02-03T01:26:56;6.20;;;2.50;;
75386;SDS011;63966;47.914;22.266;2023-02-03T01:29:59;5.45;;;2.17;;
75386;SDS011;63966;47.914;22.266;2023-02-03T01:33:04;6.00;;;2.38;;
75386;SDS011;63966;47.914;22.266;2023-02-03T01:36:08;6.90;;;2.33;;
75386;SDS011;63966;47.914;22.266;2023-02-03T01:39:12;5.23;;;2.10;;
75386;SDS011;63966;47.914;22.266;2023-02-03T01:42:16;5.93;;;2.25;;
75386;SDS011;63966;47.914;22.266;2023-02-03T01:45:20;5.45;;;2.42;;
75386;SDS011;63966;47.914;22.266;2023-02-03T01:48:24;4.70;;;1.90;;
75386;SDS011;63966;47.914;22.266;2023-02-03T01:51:28;7.47;;;2.30;;
75386;SDS011;63966;47.914;22.266;2023-02-03T01:54:33;5.95;;;2.28;;
75386;SDS011;63966;47.914;22.266;2023-02-03T01:57:44;9.00;;;2.35;;
75386;SDS011;63966;47.914;22.266;2023-02-03T02:00:53;6.22;;;2.15;;
75386;SDS011;63966;47.914;22.266;2023-02-03T02:03:59;6.55;;;2.28;;
75386;SDS011;63966;47.914;22.266;2023-02-03T02:07:05;5.65;;;2.25;;
75386;SDS011;63966;47.914;22.266;2023-02-03T02:10:09;7.60;;;2.20;;
75386;SDS011;63966;47.914;22.266;2023-02-03T02:13:16;4.90;;;2.27;;
75386;SDS011;63966;47.914;22.266;2023-02-03T02:26:43;4.07;;;1.80;;
75386;SDS011;63966;47.914;22.266;2023-02-03T02:33:35;4.53;;;1.30;;
75386;SDS011;63966;47.914;22.266;2023-02-03T02:40:11;7.03;;;1.97;;
75386;SDS011;63966;47.914;22.266;2023-02-03T02:43:27;4.57;;;1.92;;
75386;SDS011;63966;47.914;22.266;2023-02-03T02:46:53;5.05;;;2.00;;
75386;SDS011;63966;47.914;22.266;2023-02-03T02:50:04;6.20;;;2.30;;
75386;SDS011;63966;47.914;22.266;2023-02-03T02:53:22;5.57;;;2.47;;
75386;SDS011;63966;47.914;22.266;2023-02-03T02:56:29;4.82;;;2.00;;
75386;SDS011;63966;47.914;22.266;2023-02-03T02:59:35;6.10;;;2.10;;
75386;SDS011;63966;47.914;22.266;2023-02-03T03:02:39;7.43;;;2.47;;
75386;SDS011;63966;47.914;22.266;2023-02-03T03:05:43;6.53;;;2.00;;
75386;SDS011;63966;47.914;22.266;2023-02-03T03:08:56;6.35;;;2.70;;
75386;SDS011;63966;47.914;22.266;2023-02-03T03:12:06;6.68;;;2.17;;
75386;SDS011;63966;47.914;22.266;2023-02-03T03:15:31;7.22;;;2.15;;
75386;SDS011;63966;47.914;22.266;2023-02-03T03:21:54;2.80;;;1.33;;
75386;SDS011;63966;47.914;22.266;2023-02-03T03:25:02;5.15;;;2.15;;
75386;SDS011;63966;47.914;22.266;2023-02-03T03:28:26;9.07;;;2.50;;
75386;SDS011;63966;47.914;22.266;2023-02-03T03:31:36;7.03;;;2.37;;
75386;SDS011;63966;47.914;22.266;2023-02-03T03:34:42;5.40;;;2.03;;
75386;SDS011;63966;47.914;22.266;2023-02-03T03:37:55;7.45;;;2.33;;
75386;SDS011;63966;47.914;22.266;2023-02-03T03:41:13;4.80;;;2.00;;
75386;SDS011;63966;47.914;22.266;2023-02-03T03:44:26;4.27;;;1.77;;
75386;SDS011;63966;47.914;22.266;2023-02-03T03:47:37;5.38;;;2.38;;
75386;SDS011;63966;47.914;22.266;2023-02-03T03:50:51;5.82;;;2.70;;
75386;SDS011;63966;47.914;22.266;2023-02-03T03:54:01;6.47;;;2.53;;
75386;SDS011;63966;47.914;22.266;2023-02-03T03:57:12;4.90;;;2.07;;
75386;SDS011;63966;47.914;22.266;2023-02-03T04:00:20;5.82;;;2.13;;
75386;SDS011;63966;47.914;22.266;2023-02-03T04:03:29;7.75;;;2.78;;
75386;SDS011;63966;47.914;22.266;2023-02-03T04:06:41;5.80;;;2.40;;
75386;SDS011;63966;47.914;22.266;2023-02-03T04:09:45;7.20;;;2.13;;
75386;SDS011;63966;47.914;22.266;2023-02-03T04:12:48;5.55;;;2.00;;
75386;SDS011;63966;47.914;22.266;2023-02-03T04:15:52;5.68;;;1.98;;
75386;SDS011;63966;47.914;22.266;2023-02-03T04:18:55;5.07;;;2.08;;
75386;SDS011;63966;47.914;22.266;2023-02-03T04:21:59;5.88;;;2.20;;
75386;SDS011;63966;47.914;22.266;2023-02-03T04:25:03;4.20;;;1.83;;
75386;SDS011;63966;47.914;22.266;2023-02-03T04:28:06;7.25;;;2.17;;
75386;SDS011;63966;47.914;22.266;2023-02-03T04:31:10;4.13;;;1.50;;
75386;SDS011;63966;47.914;22.266;2023-02-03T04:34:14;4.47;;;1.77;;
75386;SDS011;63966;47.914;22.266;2023-02-03T04:37:17;3.88;;;1.45;;
75386;SDS011;63966;47.914;22.266;2023-02-03T04:40:23;6.28;;;2.55;;
75386;SDS011;63966;47.914;22.266;2023-02-03T04:43:27;5.20;;;2.13;;
75386;SDS011;63966;47.914;22.266;2023-02-03T04:46:30;6.07;;;2.17;;
75386;SDS011;63966;47.914;22.266;2023-02-03T04:49:34;6.32;;;2.17;;
75386;SDS011;63966;47.914;22.266;2023-02-03T04:52:37;5.38;;;2.10;;
75386;SDS011;63966;47.914;22.266;2023-02-03T04:55:44;5.77;;;2.47;;
75386;SDS011;63966;47.914;22.266;2023-02-03T04:58:51;6.22;;;2.53;;
75386;SDS011;63966;47.914;22.266;2023-02-03T05:01:55;4.55;;;2.08;;
75386;SDS011;63966;47.914;22.266;2023-02-03T05:04:59;6.38;;;2.78;;
75386;SDS011;63966;47.914;22.266;2023-02-03T05:08:02;6.90;;;2.77;;
75386;SDS011;63966;47.914;22.266;2023-02-03T05:11:06;7.25;;;2.67;;
75386;SDS011;63966;47.914;22.266;2023-02-03T05:14:10;5.90;;;2.60;;
75386;SDS011;63966;47.914;22.266;2023-02-03T05:17:13;8.02;;;3.42;;
75386;SDS011;63966;47.914;22.266;2023-02-03T05:20:17;6.13;;;2.27;;
75386;SDS011;63966;47.914;22.266;2023-02-03T05:23:20;7.47;;;2.90;;
75386;SDS011;63966;47.914;22.266;2023-02-03T05:26:24;6.97;;;2.60;;
75386;SDS011;63966;47.914;22.266;2023-02-03T05:29:27;8.20;;;2.60;;
75386;SDS011;63966;47.914;22.266;2023-02-03T05:32:31;9.50;;;2.90;;
75386;SDS011;63966;47.914;22.266;2023-02-03T05:35:34;14.48;;;4.80;;
75386;SDS011;63966;47.914;22.266;2023-02-03T05:38:38;16.63;;;5.80;;
75386;SDS011;63966;47.914;22.266;2023-02-03T05:41:43;13.77;;;5.82;;
75386;SDS011;63966;47.914;22.266;2023-02-03T05:44:59;8.73;;;3.57;;
75386;SDS011;63966;47.914;22.266;2023-02-03T05:48:02;6.90;;;2.75;;
75386;SDS011;63966;47.914;22.266;2023-02-03T05:51:06;6.55;;;3.03;;
75386;SDS011;63966;47.914;22.266;2023-02-03T05:54:09;8.68;;;3.60;;
75386;SDS011;63966;47.914;22.266;2023-02-03T05:57:13;7.77;;;3.13;;
75386;SDS011;63966;47.914;22.266;2023-02-03T06:00:17;6.28;;;2.42;;
75386;SDS011;63966;47.914;22.266;2023-02-03T06:03:22;8.98;;;3.30;;
75386;SDS011;63966;47.914;22.266;2023-02-03T06:06:26;7.15;;;3.08;;
75386;SDS011;63966;47.914;22.266;2023-02-03T06:09:34;7.00;;;2.92;;
75386;SDS011;63966;47.914;22.266;2023-02-03T06:12:38;5.90;;;2.60;;
75386;SDS011;63966;47.914;22.266;2023-02-03T06:15:42;8.27;;;3.00;;
75386;SDS011;63966;47.914;22.266;2023-02-03T06:18:46;6.93;;;3.22;;
75386;SDS011;63966;47.914;22.266;2023-02-03T06:21:50;7.30;;;3.57;;
75386;SDS011;63966;47.914;22.266;2023-02-03T06:24:53;11.63;;;4.70;;
75386;SDS011;63966;47.914;22.266;2023-02-03T06:27:57;9.45;;;4.50;;
75386;SDS011;63966;47.914;22.266;2023-02-03T06:31:01;5.90;;;2.60;;
75386;SDS011;63966;47.914;22.266;2023-02-03T06:34:05;7.18;;;2.88;;
75386;SDS011;63966;47.914;22.266;2023-02-03T06:37:08;8.93;;;3.30;;
75386;SDS011;63966;47.914;22.266;2023-02-03T06:40:12;7.38;;;2.83;;
75386;SDS011;63966;47.914;22.266;2023-02-03T06:43:16;7.47;;;2.70;;
75386;SDS011;63966;47.914;22.266;2023-02-03T06:46:20;7.25;;;3.33;;
75386;SDS011;63966;47.914;22.266;2023-02-03T06:49:24;6.80;;;3.05;;
75386;SDS011;63966;47.914;22.266;2023-02-03T06:52:28;9.47;;;3.30;;
75386;SDS011;63966;47.914;22.266;2023-02-03T06:55:31;7.25;;;2.50;;
75386;SDS011;63966;47.914;22.266;2023-02-03T06:58:35;11.02;;;3.55;;
75386;SDS011;63966;47.914;22.266;2023-02-03T07:01:38;13.25;;;4.60;;
75386;SDS011;63966;47.914;22.266;2023-02-03T07:04:42;14.32;;;5.75;;
75386;SDS011;63966;47.914;22.266;2023-02-03T07:07:46;14.57;;;5.50;;
75386;SDS011;63966;47.914;22.266;2023-02-03T07:10:53;10.53;;;4.10;;
75386;SDS011;63966;47.914;22.266;2023-02-03T07:13:57;8.82;;;2.80;;
75386;SDS011;63966;47.914;22.266;2023-02-03T07:17:01;6.93;;;2.72;;
75386;SDS011;63966;47.914;22.266;2023-02-03T07:20:05;6.00;;;2.60;;
75386;SDS011;63966;47.914;22.266;2023-02-03T07:23:08;8.43;;;3.53;;
75386;SDS011;63966;47.914;22.266;2023-02-03T07:26:12;16.52;;;7.35;;
75386;SDS011;63966;47.914;22.266;2023-02-03T07:29:15;22.67;;;13.07;;
75386;SDS011;63966;47.914;22.266;2023-02-03T07:32:19;19.70;;;11.10;;
75386;SDS011;63966;47.914;22.266;2023-02-03T07:35:23;20.38;;;10.43;;
75386;SDS011;63966;47.914;22.266;2023-02-03T07:38:27;27.43;;;10.17;;
75386;SDS011;63966;47.914;22.266;2023-02-03T07:41:31;18.20;;;8.25;;
75386;SDS011;63966;47.914;22.266;2023-02-03T07:44:34;34.42;;;11.68;;
75386;SDS011;63966;47.914;22.266;2023-02-03T07:47:38;22.80;;;10.73;;
75386;SDS011;63966;47.914;22.266;2023-02-03T07:50:43;43.60;;;20.00;;
75386;SDS011;63966;47.914;22.266;2023-02-03T07:53:48;58.20;;;25.17;;
75386;SDS011;63966;47.914;22.266;2023-02-03T07:56:52;65.33;;;20.73;;
75386;SDS011;63966;47.914;22.266;2023-02-03T07:59:55;47.17;;;13.57;;
75386;SDS011;63966;47.914;22.266;2023-02-03T08:02:59;41.22;;;11.75;;
75386;SDS011;63966;47.914;22.266;2023-02-03T08:06:02;27.58;;;9.88;;
75386;SDS011;63966;47.914;22.266;2023-02-03T08:09:06;47.37;;;17.77;;
75386;SDS011;63966;47.914;22.266;2023-02-03T08:12:10;40.53;;;14.87;;
75386;SDS011;63966;47.914;22.266;2023-02-03T08:15:13;30.58;;;11.10;;
75386;SDS011;63966;47.914;22.266;2023-02-03T08:18:18;17.95;;;6.85;;
75386;SDS011;63966;47.914;22.266;2023-02-03T08:21:22;9.57;;;4.10;;
75386;SDS011;63966;47.914;22.266;2023-02-03T08:24:25;8.40;;;4.00;;
75386;SDS011;63966;47.914;22.266;2023-02-03T08:27:29;9.70;;;4.50;;
75386;SDS011;63966;47.914;22.266;2023-02-03T08:30:34;9.07;;;3.67;;
75386;SDS011;63966;47.914;22.266;2023-02-03T08:33:38;8.13;;;3.38;;
75386;SDS011;63966;47.914;22.266;2023-02-03T08:36:46;9.02;;;3.78;;
75386;SDS011;63966;47.914;22.266;2023-02-03T08:39:50;7.50;;;2.63;;
75386;SDS011;63966;47.914;22.266;2023-02-03T08:47:56;7.18;;;2.80;;
75386;SDS011;63966;47.914;22.266;2023-02-03T08:51:00;8.40;;;3.30;;
75386;SDS011;63966;47.914;22.266;2023-02-03T08:54:04;6.57;;;3.13;;
75386;SDS011;63966;47.914;22.266;2023-02-03T08:57:08;7.90;;;3.20;;
75386;SDS011;63966;47.914;22.266;2023-02-03T09:00:11;6.82;;;2.60;;
75386;SDS011;63966;47.914;22.266;2023-02-03T09:03:15;8.25;;;3.05;;
75386;SDS011;63966;47.914;22.266;2023-02-03T09:06:19;8.60;;;3.45;;
75386;SDS011;63966;47.914;22.266;2023-02-03T09:09:26;9.00;;;3.72;;
75386;SDS011;63966;47.914;22.266;2023-02-03T09:12:30;7.77;;;3.53;;
75386;SDS011;63966;47.914;22.266;2023-02-03T09:15:33;7.20;;;3.90;;
75386;SDS011;63966;47.914;22.266;2023-02-03T09:18:38;8.52;;;3.40;;
75386;SDS011;63966;47.914;22.266;2023-02-03T09:21:42;7.68;;;3.55;;
75386;SDS011;63966;47.914;22.266;2023-02-03T09:24:49;8.88;;;3.97;;
75386;SDS011;63966;47.914;22.266;2023-02-03T09:27:53;6.07;;;2.80;;
75386;SDS011;63966;47.914;22.266;2023-02-03T09:31:00;9.17;;;3.80;;
75386;SDS011;63966;47.914;22.266;2023-02-03T09:34:08;6.78;;;3.13;;
75386;SDS011;63966;47.914;22.266;2023-02-03T09:37:12;8.95;;;3.78;;
75386;SDS011;63966;47.914;22.266;2023-02-03T09:40:17;8.77;;;3.60;;
75386;SDS011;63966;47.914;22.266;2023-02-03T09:46:40;43.93;;;11.93;;
75386;SDS011;63966;47.914;22.266;2023-02-03T09:49:49;18.35;;;5.55;;
75386;SDS011;63966;47.914;22.266;2023-02-03T09:52:57;18.50;;;7.43;;
75386;SDS011;63966;47.914;22.266;2023-02-03T09:56:05;11.10;;;5.10;;
75386;SDS011;63966;47.914;22.266;2023-02-03T09:59:13;25.53;;;6.67;;
75386;SDS011;63966;47.914;22.266;2023-02-03T10:05:55;23.48;;;6.85;;
75386;SDS011;63966;47.914;22.266;2023-02-03T10:09:24;19.65;;;5.85;;
75386;SDS011;63966;47.914;22.266;2023-02-03T10:19:17;7.03;;;3.30;;
75386;SDS011;63966;47.914;22.266;2023-02-03T10:22:25;5.78;;;2.90;;
75386;SDS011;63966;47.914;22.266;2023-02-03T10:25:32;14.30;;;4.60;;
75386;SDS011;63966;47.914;22.266;2023-02-03T10:28:50;7.72;;;3.00;;
75386;SDS011;63966;47.914;22.266;2023-02-03T10:31:57;11.43;;;4.53;;
75386;SDS011;63966;47.914;22.266;2023-02-03T10:35:01;9.97;;;4.30;;
75386;SDS011;63966;47.914;22.266;2023-02-03T10:38:13;13.15;;;5.10;;
75386;SDS011;63966;47.914;22.266;2023-02-03T10:41:30;10.35;;;4.97;;
75386;SDS011;63966;47.914;22.266;2023-02-03T10:44:44;10.05;;;5.00;;
75386;SDS011;63966;47.914;22.266;2023-02-03T10:53:44;13.50;;;4.83;;
75386;SDS011;63966;47.914;22.266;2023-02-03T10:56:48;15.93;;;4.38;;
75386;SDS011;63966;47.914;22.266;2023-02-03T10:59:51;40.22;;;13.23;;
75386;SDS011;63966;47.914;22.266;2023-02-03T11:03:22;24.20;;;9.18;;
75386;SDS011;63966;47.914;22.266;2023-02-03T11:06:30;21.10;;;8.73;;
75386;SDS011;63966;47.914;22.266;2023-02-03T11:09:39;14.63;;;7.17;;
75386;SDS011;63966;47.914;22.266;2023-02-03T11:12:44;9.32;;;4.80;;
75386;SDS011;63966;47.914;22.266;2023-02-03T11:15:51;9.40;;;4.75;;
75386;SDS011;63966;47.914;22.266;2023-02-03T11:19:19;10.02;;;4.50;;
75386;SDS011;63966;47.914;22.266;2023-02-03T11:25:42;8.27;;;3.00;;
75386;SDS011;63966;47.914;22.266;2023-02-03T11:28:49;6.75;;;2.85;;
75386;SDS011;63966;47.914;22.266;2023-02-03T11:31:55;10.50;;;3.70;;
75386;SDS011;63966;47.914;22.266;2023-02-03T11:35:02;10.68;;;3.90;;
75386;SDS011;63966;47.914;22.266;2023-02-03T11:38:30;8.40;;;3.90;;
75386;SDS011;63966;47.914;22.266;2023-02-03T11:41:40;9.13;;;3.40;;
75386;SDS011;63966;47.914;22.266;2023-02-03T11:44:44;8.43;;;3.72;;
75386;SDS011;63966;47.914;22.266;2023-02-03T11:47:48;8.50;;;4.30;;
75386;SDS011;63966;47.914;22.266;2023-02-03T12:01:22;6.03;;;3.10;;
75386;SDS011;63966;47.914;22.266;2023-02-03T12:07:59;9.07;;;3.55;;
75386;SDS011;63966;47.914;22.266;2023-02-03T12:11:26;10.20;;;4.73;;
75386;SDS011;63966;47.914;22.266;2023-02-03T12:18:05;9.10;;;3.35;;
75386;SDS011;63966;47.914;22.266;2023-02-03T12:21:45;7.60;;;4.25;;
75386;SDS011;63966;47.914;22.266;2023-02-03T12:25:03;8.35;;;3.05;;
75386;SDS011;63966;47.914;22.266;2023-02-03T12:35:26;15.57;;;6.88;;
75386;SDS011;63966;47.914;22.266;2023-02-03T12:38:59;9.68;;;4.38;;
75386;SDS011;63966;47.914;22.266;2023-02-03T12:42:25;7.50;;;2.45;;
75386;SDS011;63966;47.914;22.266;2023-02-03T12:45:33;9.60;;;4.10;;
75386;SDS011;63966;47.914;22.266;2023-02-03T12:52:09;14.73;;;5.10;;
75386;SDS011;63966;47.914;22.266;2023-02-03T12:55:37;10.00;;;3.78;;
75386;SDS011;63966;47.914;22.266;2023-02-03T12:58:49;12.05;;;5.07;;
75386;SDS011;63966;47.914;22.266;2023-02-03T13:02:10;8.80;;;4.23;;
75386;SDS011;63966;47.914;22.266;2023-02-03T13:05:47;8.23;;;4.20;;
75386;SDS011;63966;47.914;22.266;2023-02-03T13:08:57;6.78;;;2.63;;
75386;SDS011;63966;47.914;22.266;2023-02-03T13:15:37;10.13;;;3.50;;
75386;SDS011;63966;47.914;22.266;2023-02-03T13:18:46;8.10;;;3.80;;
75386;SDS011;63966;47.914;22.266;2023-02-03T13:21:56;10.77;;;4.93;;
75386;SDS011;63966;47.914;22.266;2023-02-03T13:41:03;7.50;;;3.58;;
75386;SDS011;63966;47.914;22.266;2023-02-03T13:44:29;9.02;;;4.75;;
75386;SDS011;63966;47.914;22.266;2023-02-03T13:47:33;8.35;;;3.80;;
75386;SDS011;63966;47.914;22.266;2023-02-03T13:50:37;8.77;;;4.30;;
75386;SDS011;63966;47.914;22.266;2023-02-03T13:53:42;9.43;;;3.92;;
75386;SDS011;63966;47.914;22.266;2023-02-03T13:56:54;7.65;;;3.50;;
75386;SDS011;63966;47.914;22.266;2023-02-03T14:00:05;9.70;;;2.92;;
75386;SDS011;63966;47.914;22.266;2023-02-03T14:09:40;6.28;;;2.40;;
75386;SDS011;63966;47.914;22.266;2023-02-03T14:16:12;10.95;;;2.30;;
75386;SDS011;63966;47.914;22.266;2023-02-03T14:19:52;8.40;;;2.50;;
75386;SDS011;63966;47.914;22.266;2023-02-03T14:22:57;10.57;;;3.17;;
75386;SDS011;63966;47.914;22.266;2023-02-03T14:26:18;8.40;;;3.50;;
75386;SDS011;63966;47.914;22.266;2023-02-03T14:29:26;9.13;;;4.15;;
75386;SDS011;63966;47.914;22.266;2023-02-03T14:35:57;18.70;;;6.93;;
75386;SDS011;63966;47.914;22.266;2023-02-03T14:39:02;13.00;;;5.27;;
75386;SDS011;63966;47.914;22.266;2023-02-03T14:42:49;10.88;;;3.67;;
75386;SDS011;63966;47.914;22.266;2023-02-03T14:52:51;7.47;;;2.70;;
75386;SDS011;63966;47.914;22.266;2023-02-03T15:03:29;9.40;;;4.18;;
75386;SDS011;63966;47.914;22.266;2023-02-03T15:06:37;9.23;;;3.75;;
75386;SDS011;63966;47.914;22.266;2023-02-03T15:09:51;8.43;;;3.40;;
75386;SDS011;63966;47.914;22.266;2023-02-03T15:12:57;7.27;;;3.00;;
75386;SDS011;63966;47.914;22.266;2023-02-03T15:16:01;8.80;;;3.38;;
75386;SDS011;63966;47.914;22.266;2023-02-03T15:19:14;8.38;;;3.85;;
75386;SDS011;63966;47.914;22.266;2023-02-03T15:25:23;12.40;;;4.53;;
75386;SDS011;63966;47.914;22.266;2023-02-03T15:28:30;8.00;;;3.90;;
75386;SDS011;63966;47.914;22.266;2023-02-03T15:31:35;8.32;;;4.32;;
75386;SDS011;63966;47.914;22.266;2023-02-03T15:37:54;11.77;;;5.72;;
75386;SDS011;63966;47.914;22.266;2023-02-03T15:41:02;15.15;;;7.38;;
75386;SDS011;63966;47.914;22.266;2023-02-03T15:44:20;12.03;;;5.37;;
75386;SDS011;63966;47.914;22.266;2023-02-03T15:47:32;13.02;;;5.80;;
75386;SDS011;63966;47.914;22.266;2023-02-03T15:57:04;13.20;;;7.28;;
75386;SDS011;63966;47.914;22.266;2023-02-03T16:00:32;13.77;;;7.10;;
75386;SDS011;63966;47.914;22.266;2023-02-03T16:03:42;13.82;;;6.55;;
75386;SDS011;63966;47.914;22.266;2023-02-03T16:06:54;11.75;;;5.38;;
75386;SDS011;63966;47.914;22.266;2023-02-03T16:09:58;14.23;;;7.05;;
75386;SDS011;63966;47.914;22.266;2023-02-03T16:13:18;11.85;;;5.25;;
75386;SDS011;63966;47.914;22.266;2023-02-03T16:19:31;12.50;;;6.60;;
75386;SDS011;63966;47.914;22.266;2023-02-03T16:22:43;12.90;;;6.63;;
75386;SDS011;63966;47.914;22.266;2023-02-03T16:26:04;17.90;;;7.97;;
75386;SDS011;63966;47.914;22.266;2023-02-03T16:29:27;22.38;;;9.75;;
75386;SDS011;63966;47.914;22.266;2023-02-03T16:36:29;14.93;;;6.47;;
75386;SDS011;63966;47.914;22.266;2023-02-03T16:39:51;13.60;;;5.00;;
75386;SDS011;63966;47.914;22.266;2023-02-03T16:43:14;14.73;;;6.13;;
75386;SDS011;63966;47.914;22.266;2023-02-03T16:46:37;11.43;;;5.88;;
75386;SDS011;63966;47.914;22.266;2023-02-03T16:49:59;11.45;;;4.80;;
75386;SDS011;63966;47.914;22.266;2023-02-03T16:53:38;10.10;;;4.63;;
75386;SDS011;63966;47.914;22.266;2023-02-03T16:56:42;10.00;;;4.37;;
75386;SDS011;63966;47.914;22.266;2023-02-03T16:59:46;12.50;;;5.40;;
75386;SDS011;63966;47.914;22.266;2023-02-03T17:02:50;12.27;;;5.93;;
75386;SDS011;63966;47.914;22.266;2023-02-03T17:05:54;10.65;;;4.72;;
75386;SDS011;63966;47.914;22.266;2023-02-03T17:08:59;11.17;;;5.20;;
75386;SDS011;63966;47.914;22.266;2023-02-03T17:12:02;10.90;;;5.22;;
75386;SDS011;63966;47.914;22.266;2023-02-03T17:15:06;10.23;;;4.80;;
75386;SDS011;63966;47.914;22.266;2023-02-03T17:18:10;11.48;;;5.53;;
75386;SDS011;63966;47.914;22.266;2023-02-03T17:21:18;10.60;;;5.77;;
75386;SDS011;63966;47.914;22.266;2023-02-03T17:24:23;11.35;;;4.90;;
75386;SDS011;63966;47.914;22.266;2023-02-03T17:27:27;14.18;;;6.57;;
75386;SDS011;63966;47.914;22.266;2023-02-03T17:30:31;15.73;;;7.97;;
75386;SDS011;63966;47.914;22.266;2023-02-03T17:33:36;11.63;;;5.63;;
75386;SDS011;63966;47.914;22.266;2023-02-03T17:36:40;12.85;;;6.70;;
75386;SDS011;63966;47.914;22.266;2023-02-03T17:39:43;11.88;;;6.57;;
75386;SDS011;63966;47.914;22.266;2023-02-03T17:43:04;20.42;;;9.05;;
75386;SDS011;63966;47.914;22.266;2023-02-03T17:46:25;12.52;;;6.97;;
75386;SDS011;63966;47.914;22.266;2023-02-03T17:49:46;55.88;;;17.55;;
75386;SDS011;63966;47.914;22.266;2023-02-03T17:53:07;40.42;;;14.35;;
75386;SDS011;63966;47.914;22.266;2023-02-03T17:56:20;24.87;;;11.00;;
75386;SDS011;63966;47.914;22.266;2023-02-03T17:59:25;13.68;;;6.63;;
75386;SDS011;63966;47.914;22.266;2023-02-03T18:02:29;16.23;;;7.60;;
75386;SDS011;63966;47.914;22.266;2023-02-03T18:05:32;10.48;;;5.28;;
75386;SDS011;63966;47.914;22.266;2023-02-03T18:08:38;15.83;;;8.30;;
75386;SDS011;63966;47.914;22.266;2023-02-03T18:11:42;19.10;;;9.02;;
75386;SDS011;63966;47.914;22.266;2023-02-03T18:14:47;20.77;;;9.98;;
75386;SDS011;63966;47.914;22.266;2023-02-03T18:17:50;26.02;;;11.43;;
75386;SDS011;63966;47.914;22.266;2023-02-03T18:20:54;15.60;;;7.10;;
75386;SDS011;63966;47.914;22.266;2023-02-03T18:23:58;16.92;;;8.02;;
75386;SDS011;63966;47.914;22.266;2023-02-03T18:27:03;25.65;;;9.35;;
75386;SDS011;63966;47.914;22.266;2023-02-03T18:30:07;16.30;;;5.95;;
75386;SDS011;63966;47.914;22.266;2023-02-03T18:33:13;17.23;;;8.13;;
75386;SDS011;63966;47.914;22.266;2023-02-03T18:36:17;17.65;;;7.28;;
75386;SDS011;63966;47.914;22.266;2023-02-03T18:39:22;13.30;;;6.68;;
75386;SDS011;63966;47.914;22.266;2023-02-03T18:42:25;16.33;;;8.52;;
75386;SDS011;63966;47.914;22.266;2023-02-03T18:45:29;14.63;;;6.65;;
75386;SDS011;63966;47.914;22.266;2023-02-03T18:48:38;13.65;;;5.30;;
75386;SDS011;63966;47.914;22.266;2023-02-03T18:51:42;12.50;;;5.82;;
75386;SDS011;63966;47.914;22.266;2023-02-03T18:54:45;16.45;;;7.43;;
75386;SDS011;63966;47.914;22.266;2023-02-03T18:57:50;14.75;;;4.63;;
75386;SDS011;63966;47.914;22.266;2023-02-03T19:00:53;12.30;;;6.05;;
75386;SDS011;63966;47.914;22.266;2023-02-03T19:03:58;8.95;;;3.95;;
75386;SDS011;63966;47.914;22.266;2023-02-03T19:07:04;8.85;;;4.03;;
75386;SDS011;63966;47.914;22.266;2023-02-03T19:10:08;11.00;;;5.00;;
75386;SDS011;63966;47.914;22.266;2023-02-03T19:13:12;6.78;;;3.45;;
75386;SDS011;63966;47.914;22.266;2023-02-03T19:16:16;8.02;;;3.97;;
75386;SDS011;63966;47.914;22.266;2023-02-03T19:19:20;9.98;;;4.55;;
75386;SDS011;63966;47.914;22.266;2023-02-03T19:22:24;10.60;;;4.78;;
75386;SDS011;63966;47.914;22.266;2023-02-03T19:25:28;10.13;;;4.85;;
75386;SDS011;63966;47.914;22.266;2023-02-03T19:28:31;10.52;;;5.15;;
75386;SDS011;63966;47.914;22.266;2023-02-03T19:31:38;8.38;;;3.90;;
75386;SDS011;63966;47.914;22.266;2023-02-03T19:34:41;10.43;;;5.20;;
75386;SDS011;63966;47.914;22.266;2023-02-03T19:37:45;12.43;;;5.70;;
75386;SDS011;63966;47.914;22.266;2023-02-03T19:40:49;14.43;;;6.35;;
75386;SDS011;63966;47.914;22.266;2023-02-03T19:43:53;13.93;;;6.05;;
75386;SDS011;63966;47.914;22.266;2023-02-03T19:46:56;10.77;;;5.17;;
75386;SDS011;63966;47.914;22.266;2023-02-03T19:50:00;11.70;;;4.63;;
75386;SDS011;63966;47.914;22.266;2023-02-03T19:53:04;11.52;;;5.20;;
75386;SDS011;63966;47.914;22.266;2023-02-03T19:56:10;13.43;;;5.82;;
75386;SDS011;63966;47.914;22.266;2023-02-03T19:59:14;14.63;;;7.07;;
75386;SDS011;63966;47.914;22.266;2023-02-03T20:02:18;15.38;;;7.15;;
75386;SDS011;63966;47.914;22.266;2023-02-03T20:05:22;9.27;;;4.13;;
75386;SDS011;63966;47.914;22.266;2023-02-03T20:08:25;8.60;;;4.18;;
75386;SDS011;63966;47.914;22.266;2023-02-03T20:11:29;6.70;;;2.83;;
75386;SDS011;63966;47.914;22.266;2023-02-03T20:14:33;7.55;;;3.42;;
75386;SDS011;63966;47.914;22.266;2023-02-03T20:17:36;5.72;;;2.75;;
75386;SDS011;63966;47.914;22.266;2023-02-03T20:20:40;6.80;;;3.00;;
75386;SDS011;63966;47.914;22.266;2023-02-03T20:23:44;8.73;;;3.60;;
75386;SDS011;63966;47.914;22.266;2023-02-03T20:26:47;7.38;;;3.17;;
75386;SDS011;63966;47.914;22.266;2023-02-03T20:29:51;10.35;;;4.10;;
75386;SDS011;63966;47.914;22.266;2023-02-03T20:32:55;12.27;;;5.68;;
75386;SDS011;63966;47.914;22.266;2023-02-03T20:35:59;5.15;;;2.40;;
75386;SDS011;63966;47.914;22.266;2023-02-03T20:39:03;4.45;;;1.65;;
75386;SDS011;63966;47.914;22.266;2023-02-03T20:42:14;4.63;;;1.90;;
75386;SDS011;63966;47.914;22.266;2023-02-03T20:45:21;8.55;;;4.28;;
75386;SDS011;63966;47.914;22.266;2023-02-03T20:48:25;9.07;;;3.03;;